Huvudsida
METAR-TAF:

METAR-TAF

Flygplatser :

Kansas City International Airport

Kansas City, Missouri, USA

latitud: 39-17-50N, longitud: 094-43-50W, höjd: 312 m

Aktuellt väderrapport

Denna rapport gjordes för 7 minuter sedan, klockan 05:53 UTC
Vind 9 kt från syd
Temperatur 22°C
Fuktighet 78%
Tryck 1018 hPa
Sikt: 16.1 km
Klar himmel

METAR: KMCI 240553Z 17009KT 10SM CLR 22/18 A3007 RMK AO2 SLP170 T02170178 10289 20217 403110189 58001

Tid: 01:00 (06:00 UTC)

Väderprognos

Denna rapport gjordes för 40 minuter sedan, klockan 05:20 UTC
Prognos gäller från 24 kl. 06 UTC till 25 kl. 06 UTC
Vind 8 kt från syd/sydost
Sikt: 10 km
Spridda moln på en höjd av 25000 ft
Från 24 kl. 1700 UTC
Vind 10 kt från syd
Sikt: 10 km
Spridda moln på en höjd av 5000 ft
Brutna moln på en höjd av 25000 ft
Från 25 kl. 0100 UTC
Vind 7 kt från syd/sydost
Sikt: 10 km
Brutna moln på en höjd av 25000 ft

TAF: KMCI 240520Z 2406/2506 16008KT P6SM SCT250 FM241700 17010KT P6SM SCT050 BKN250 FM250100 16007KT P6SM BKN250

Aktuella väderrapporter och prognoser från 4000 flygplatser (METAR- och TAF-rapporter).

De tillgängliga stationerna syns som gula och röda prickar på kartan.

För musen över prickarna för att se namnen på stationerna.

Klicka sedan för att få väderrapporter och prognoser.

För att ändra kartan: Klicka på de gröna knapparna med ett svart kors på för att zooma in; den gröna knappen med ett streck på för att zooma ut; eller på de gröna pilarna för angränsande kartor.


METAR-TAF: